SBSN/STM METAR and TAF weather

Enter ICAO airport designator
Station Type Date Time Source
SBSN METAR 2019/10/21 02:00 UTC NOAA

SBSN 210200Z 15002KT 9999 VCTS FEW027CB 25/24 Q1011


Station Type Date Time Source
SBSN Decoded METAR 2019/10/21 02:00 UTC NOAA

Santarem-Aeroporto, Brazil (SBSN) 02-26S 054-43W 72M
Oct 20, 2019 - 10:00 PM EDT / 2019.10.21 0200 UTC
Wind: from the SSE (150 degrees) at 2 MPH (2 KT):0
Visibility: greater than 7 mile(s):0
Sky conditions: mostly clear
Weather: thunder in the vicinity; Cumulonimbus clouds observed
Temperature: 77 F (25 C)
Dew Point: 75 F (24 C)
Relative Humidity: 94%
Pressure (altimeter): 29.85 in. Hg (1011 hPa)
ob: SBSN 210200Z 15002KT 9999 VCTS FEW027CB 25/24 Q1011
cycle: 2

Station Type Date Time Source
SBSN TAF 2019/10/21 00:00 UTC NOAA

TAF SBSN 202100Z 2100/2124 13005KT 9999 FEW020 FEW025TCU TN25/2108Z TX32/2118Z PROB30 2102/2106 13005KT 5000 TSRA SCT015 FEW030CB
BECMG 2107/2109 07006KT FEW015
BECMG 2115/2117 09010KT SCT017 FEW023TCU PROB30 2119/2121 TS FEW030CB
RMK PGU

Example: see airport list